sensor_id;sensor_type;location;lat;lon;timestamp;P1;durP1;ratioP1;P2;durP2;ratioP2
55007;SDS011;40902;45.116;21.296;2024-01-15T00:00:41;22.63;;;15.90;;
55007;SDS011;40902;45.116;21.296;2024-01-15T00:03:07;24.90;;;16.02;;
55007;SDS011;40902;45.116;21.296;2024-01-15T00:05:33;24.13;;;16.52;;
55007;SDS011;40902;45.116;21.296;2024-01-15T00:07:58;23.83;;;15.82;;
55007;SDS011;40902;45.116;21.296;2024-01-15T00:10:24;22.63;;;15.95;;
55007;SDS011;40902;45.116;21.296;2024-01-15T00:12:50;26.40;;;17.63;;
55007;SDS011;40902;45.116;21.296;2024-01-15T00:15:15;22.85;;;15.52;;
55007;SDS011;40902;45.116;21.296;2024-01-15T00:17:41;24.33;;;15.70;;
55007;SDS011;40902;45.116;21.296;2024-01-15T00:20:07;21.88;;;15.85;;
55007;SDS011;40902;45.116;21.296;2024-01-15T00:22:33;23.15;;;15.93;;
55007;SDS011;40902;45.116;21.296;2024-01-15T00:25:01;23.75;;;16.25;;
55007;SDS011;40902;45.116;21.296;2024-01-15T00:27:27;21.13;;;14.90;;
55007;SDS011;40902;45.116;21.296;2024-01-15T00:29:53;21.08;;;15.68;;
55007;SDS011;40902;45.116;21.296;2024-01-15T00:32:19;21.88;;;15.98;;
55007;SDS011;40902;45.116;21.296;2024-01-15T00:34:45;23.83;;;16.23;;
55007;SDS011;40902;45.116;21.296;2024-01-15T00:37:11;24.23;;;16.10;;
55007;SDS011;40902;45.116;21.296;2024-01-15T00:39:37;25.13;;;16.45;;
55007;SDS011;40902;45.116;21.296;2024-01-15T00:42:03;23.60;;;15.32;;
55007;SDS011;40902;45.116;21.296;2024-01-15T00:44:29;24.73;;;15.82;;
55007;SDS011;40902;45.116;21.296;2024-01-15T00:46:54;23.05;;;17.05;;
55007;SDS011;40902;45.116;21.296;2024-01-15T00:49:20;22.30;;;15.85;;
55007;SDS011;40902;45.116;21.296;2024-01-15T00:51:47;23.45;;;15.68;;
55007;SDS011;40902;45.116;21.296;2024-01-15T00:54:12;24.73;;;17.73;;
55007;SDS011;40902;45.116;21.296;2024-01-15T00:56:38;24.45;;;16.98;;
55007;SDS011;40902;45.116;21.296;2024-01-15T00:59:04;25.00;;;16.27;;
55007;SDS011;40902;45.116;21.296;2024-01-15T01:01:30;24.13;;;16.48;;
55007;SDS011;40902;45.116;21.296;2024-01-15T01:03:56;25.38;;;17.55;;
55007;SDS011;40902;45.116;21.296;2024-01-15T01:06:21;24.73;;;17.13;;
55007;SDS011;40902;45.116;21.296;2024-01-15T01:08:47;26.35;;;18.10;;
55007;SDS011;40902;45.116;21.296;2024-01-15T01:11:15;24.80;;;17.25;;
55007;SDS011;40902;45.116;21.296;2024-01-15T01:13:41;26.65;;;17.88;;
55007;SDS011;40902;45.116;21.296;2024-01-15T01:16:07;25.38;;;16.77;;
55007;SDS011;40902;45.116;21.296;2024-01-15T01:18:33;26.13;;;16.98;;
55007;SDS011;40902;45.116;21.296;2024-01-15T01:20:59;25.63;;;16.73;;
55007;SDS011;40902;45.116;21.296;2024-01-15T01:23:25;23.77;;;16.63;;
55007;SDS011;40902;45.116;21.296;2024-01-15T01:25:51;26.50;;;17.38;;
55007;SDS011;40902;45.116;21.296;2024-01-15T01:28:17;21.70;;;15.65;;
55007;SDS011;40902;45.116;21.296;2024-01-15T01:30:42;25.42;;;16.65;;
55007;SDS011;40902;45.116;21.296;2024-01-15T01:33:08;23.63;;;16.67;;
55007;SDS011;40902;45.116;21.296;2024-01-15T01:35:34;28.60;;;17.73;;
55007;SDS011;40902;45.116;21.296;2024-01-15T01:38:00;22.67;;;16.52;;
55007;SDS011;40902;45.116;21.296;2024-01-15T01:40:25;21.42;;;15.82;;
55007;SDS011;40902;45.116;21.296;2024-01-15T01:42:51;22.55;;;15.93;;
55007;SDS011;40902;45.116;21.296;2024-01-15T01:45:17;22.58;;;15.85;;
55007;SDS011;40902;45.116;21.296;2024-01-15T01:47:42;22.55;;;15.10;;
55007;SDS011;40902;45.116;21.296;2024-01-15T01:50:08;22.15;;;15.70;;
55007;SDS011;40902;45.116;21.296;2024-01-15T01:52:34;20.88;;;14.80;;
55007;SDS011;40902;45.116;21.296;2024-01-15T01:55:01;22.90;;;15.15;;
55007;SDS011;40902;45.116;21.296;2024-01-15T01:57:28;22.27;;;15.38;;
55007;SDS011;40902;45.116;21.296;2024-01-15T01:59:55;22.17;;;14.90;;
55007;SDS011;40902;45.116;21.296;2024-01-15T02:02:22;22.70;;;15.57;;
55007;SDS011;40902;45.116;21.296;2024-01-15T02:04:49;22.40;;;15.00;;
55007;SDS011;40902;45.116;21.296;2024-01-15T02:07:15;21.50;;;14.70;;
55007;SDS011;40902;45.116;21.296;2024-01-15T02:09:42;20.73;;;14.65;;
55007;SDS011;40902;45.116;21.296;2024-01-15T02:12:09;20.98;;;15.20;;
55007;SDS011;40902;45.116;21.296;2024-01-15T02:14:35;21.55;;;14.60;;
55007;SDS011;40902;45.116;21.296;2024-01-15T02:17:01;22.88;;;16.00;;
55007;SDS011;40902;45.116;21.296;2024-01-15T02:19:27;24.65;;;15.60;;
55007;SDS011;40902;45.116;21.296;2024-01-15T02:21:53;23.70;;;15.50;;
55007;SDS011;40902;45.116;21.296;2024-01-15T02:24:19;22.90;;;14.68;;
55007;SDS011;40902;45.116;21.296;2024-01-15T02:26:45;24.48;;;15.55;;
55007;SDS011;40902;45.116;21.296;2024-01-15T02:29:10;23.45;;;15.13;;
55007;SDS011;40902;45.116;21.296;2024-01-15T02:31:37;23.48;;;14.30;;
55007;SDS011;40902;45.116;21.296;2024-01-15T02:34:03;21.95;;;14.20;;
55007;SDS011;40902;45.116;21.296;2024-01-15T02:36:29;21.38;;;14.48;;
55007;SDS011;40902;45.116;21.296;2024-01-15T02:38:55;21.13;;;14.40;;
55007;SDS011;40902;45.116;21.296;2024-01-15T02:41:20;22.73;;;15.00;;
55007;SDS011;40902;45.116;21.296;2024-01-15T02:43:46;20.45;;;14.45;;
55007;SDS011;40902;45.116;21.296;2024-01-15T02:46:12;19.80;;;14.38;;
55007;SDS011;40902;45.116;21.296;2024-01-15T02:48:38;20.92;;;14.43;;
55007;SDS011;40902;45.116;21.296;2024-01-15T02:51:03;21.35;;;14.73;;
55007;SDS011;40902;45.116;21.296;2024-01-15T02:53:29;23.00;;;16.05;;
55007;SDS011;40902;45.116;21.296;2024-01-15T02:55:55;21.83;;;15.52;;
55007;SDS011;40902;45.116;21.296;2024-01-15T02:58:21;21.17;;;15.25;;
55007;SDS011;40902;45.116;21.296;2024-01-15T03:00:47;20.85;;;14.93;;
55007;SDS011;40902;45.116;21.296;2024-01-15T03:03:13;22.10;;;14.52;;
55007;SDS011;40902;45.116;21.296;2024-01-15T03:05:38;20.02;;;13.90;;
55007;SDS011;40902;45.116;21.296;2024-01-15T03:08:04;21.10;;;13.90;;
55007;SDS011;40902;45.116;21.296;2024-01-15T03:10:30;21.73;;;13.93;;
55007;SDS011;40902;45.116;21.296;2024-01-15T03:12:56;19.33;;;13.45;;
55007;SDS011;40902;45.116;21.296;2024-01-15T03:15:22;20.77;;;13.63;;
55007;SDS011;40902;45.116;21.296;2024-01-15T03:17:48;20.33;;;14.02;;
55007;SDS011;40902;45.116;21.296;2024-01-15T03:20:14;16.30;;;11.85;;
55007;SDS011;40902;45.116;21.296;2024-01-15T03:22:39;19.83;;;12.63;;
55007;SDS011;40902;45.116;21.296;2024-01-15T03:25:05;22.83;;;14.57;;
55007;SDS011;40902;45.116;21.296;2024-01-15T03:27:31;19.90;;;13.93;;
55007;SDS011;40902;45.116;21.296;2024-01-15T03:29:57;18.35;;;13.35;;
55007;SDS011;40902;45.116;21.296;2024-01-15T03:32:23;18.42;;;13.45;;
55007;SDS011;40902;45.116;21.296;2024-01-15T03:34:49;16.48;;;12.30;;
55007;SDS011;40902;45.116;21.296;2024-01-15T03:37:15;18.67;;;13.18;;
55007;SDS011;40902;45.116;21.296;2024-01-15T03:39:40;19.83;;;13.65;;
55007;SDS011;40902;45.116;21.296;2024-01-15T03:42:06;16.15;;;11.95;;
55007;SDS011;40902;45.116;21.296;2024-01-15T03:44:32;18.27;;;12.50;;
55007;SDS011;40902;45.116;21.296;2024-01-15T03:46:58;17.17;;;12.15;;
55007;SDS011;40902;45.116;21.296;2024-01-15T03:49:24;21.33;;;12.48;;
55007;SDS011;40902;45.116;21.296;2024-01-15T03:51:49;18.52;;;12.70;;
55007;SDS011;40902;45.116;21.296;2024-01-15T03:54:15;17.38;;;12.07;;
55007;SDS011;40902;45.116;21.296;2024-01-15T03:56:41;16.90;;;11.85;;
55007;SDS011;40902;45.116;21.296;2024-01-15T03:59:06;16.58;;;11.70;;
55007;SDS011;40902;45.116;21.296;2024-01-15T04:01:32;17.30;;;12.48;;
55007;SDS011;40902;45.116;21.296;2024-01-15T04:03:58;15.35;;;11.00;;
55007;SDS011;40902;45.116;21.296;2024-01-15T04:06:24;18.27;;;12.07;;
55007;SDS011;40902;45.116;21.296;2024-01-15T04:08:50;18.50;;;12.18;;
55007;SDS011;40902;45.116;21.296;2024-01-15T04:11:15;15.60;;;10.85;;
55007;SDS011;40902;45.116;21.296;2024-01-15T04:13:41;14.70;;;10.85;;
55007;SDS011;40902;45.116;21.296;2024-01-15T04:16:07;14.38;;;10.38;;
55007;SDS011;40902;45.116;21.296;2024-01-15T04:18:32;15.88;;;11.07;;
55007;SDS011;40902;45.116;21.296;2024-01-15T04:20:58;15.77;;;10.77;;
55007;SDS011;40902;45.116;21.296;2024-01-15T04:23:24;15.15;;;10.82;;
55007;SDS011;40902;45.116;21.296;2024-01-15T04:25:50;15.27;;;10.57;;
55007;SDS011;40902;45.116;21.296;2024-01-15T04:28:15;15.68;;;11.15;;
55007;SDS011;40902;45.116;21.296;2024-01-15T04:30:41;16.20;;;10.75;;
55007;SDS011;40902;45.116;21.296;2024-01-15T04:33:07;17.50;;;10.60;;
55007;SDS011;40902;45.116;21.296;2024-01-15T04:35:33;15.15;;;9.85;;
55007;SDS011;40902;45.116;21.296;2024-01-15T04:37:59;16.77;;;10.38;;
55007;SDS011;40902;45.116;21.296;2024-01-15T04:40:25;15.50;;;11.35;;
55007;SDS011;40902;45.116;21.296;2024-01-15T04:42:53;14.10;;;9.43;;
55007;SDS011;40902;45.116;21.296;2024-01-15T04:45:19;13.73;;;9.65;;
55007;SDS011;40902;45.116;21.296;2024-01-15T04:47:47;13.32;;;9.98;;
55007;SDS011;40902;45.116;21.296;2024-01-15T04:50:14;16.02;;;10.30;;
55007;SDS011;40902;45.116;21.296;2024-01-15T04:52:40;15.02;;;10.80;;
55007;SDS011;40902;45.116;21.296;2024-01-15T04:55:05;14.75;;;10.23;;
55007;SDS011;40902;45.116;21.296;2024-01-15T04:57:31;13.32;;;9.48;;
55007;SDS011;40902;45.116;21.296;2024-01-15T04:59:57;13.18;;;9.88;;
55007;SDS011;40902;45.116;21.296;2024-01-15T05:02:23;14.80;;;9.63;;
55007;SDS011;40902;45.116;21.296;2024-01-15T05:04:49;15.27;;;10.48;;
55007;SDS011;40902;45.116;21.296;2024-01-15T05:07:14;14.05;;;10.05;;
55007;SDS011;40902;45.116;21.296;2024-01-15T05:09:40;18.08;;;11.02;;
55007;SDS011;40902;45.116;21.296;2024-01-15T05:12:06;13.52;;;10.15;;
55007;SDS011;40902;45.116;21.296;2024-01-15T05:14:32;16.35;;;10.80;;
55007;SDS011;40902;45.116;21.296;2024-01-15T05:16:58;13.98;;;10.30;;
55007;SDS011;40902;45.116;21.296;2024-01-15T05:19:23;13.32;;;9.90;;
55007;SDS011;40902;45.116;21.296;2024-01-15T05:21:49;16.83;;;9.98;;
55007;SDS011;40902;45.116;21.296;2024-01-15T05:24:15;13.75;;;9.95;;
55007;SDS011;40902;45.116;21.296;2024-01-15T05:26:41;15.65;;;10.35;;
55007;SDS011;40902;45.116;21.296;2024-01-15T05:29:06;13.70;;;10.32;;
55007;SDS011;40902;45.116;21.296;2024-01-15T05:31:32;13.15;;;9.70;;
55007;SDS011;40902;45.116;21.296;2024-01-15T05:33:58;14.68;;;9.80;;
55007;SDS011;40902;45.116;21.296;2024-01-15T05:36:24;13.85;;;10.05;;
55007;SDS011;40902;45.116;21.296;2024-01-15T05:38:49;14.10;;;9.90;;
55007;SDS011;40902;45.116;21.296;2024-01-15T05:41:15;13.00;;;9.25;;
55007;SDS011;40902;45.116;21.296;2024-01-15T05:43:41;13.95;;;9.02;;
55007;SDS011;40902;45.116;21.296;2024-01-15T05:46:06;13.48;;;9.32;;
55007;SDS011;40902;45.116;21.296;2024-01-15T05:48:32;14.43;;;9.88;;
55007;SDS011;40902;45.116;21.296;2024-01-15T05:50:58;13.48;;;9.73;;
55007;SDS011;40902;45.116;21.296;2024-01-15T05:53:24;15.07;;;10.27;;
55007;SDS011;40902;45.116;21.296;2024-01-15T05:55:50;14.00;;;9.93;;
55007;SDS011;40902;45.116;21.296;2024-01-15T05:58:16;12.55;;;9.25;;
55007;SDS011;40902;45.116;21.296;2024-01-15T06:00:42;12.82;;;9.13;;
55007;SDS011;40902;45.116;21.296;2024-01-15T06:03:07;13.77;;;8.95;;
55007;SDS011;40902;45.116;21.296;2024-01-15T06:05:33;11.38;;;8.45;;
55007;SDS011;40902;45.116;21.296;2024-01-15T06:07:59;14.82;;;9.27;;
55007;SDS011;40902;45.116;21.296;2024-01-15T06:10:25;12.00;;;8.68;;
55007;SDS011;40902;45.116;21.296;2024-01-15T06:12:51;14.98;;;10.18;;
55007;SDS011;40902;45.116;21.296;2024-01-15T06:15:16;14.88;;;10.32;;
55007;SDS011;40902;45.116;21.296;2024-01-15T06:17:42;13.55;;;9.30;;
55007;SDS011;40902;45.116;21.296;2024-01-15T06:20:10;13.65;;;10.00;;
55007;SDS011;40902;45.116;21.296;2024-01-15T06:22:37;14.57;;;9.23;;
55007;SDS011;40902;45.116;21.296;2024-01-15T06:25:04;14.40;;;8.85;;
55007;SDS011;40902;45.116;21.296;2024-01-15T06:27:31;12.80;;;9.00;;
55007;SDS011;40902;45.116;21.296;2024-01-15T06:29:57;13.88;;;9.45;;
55007;SDS011;40902;45.116;21.296;2024-01-15T06:32:23;10.77;;;8.05;;
55007;SDS011;40902;45.116;21.296;2024-01-15T06:34:49;11.95;;;7.97;;
55007;SDS011;40902;45.116;21.296;2024-01-15T06:37:15;15.13;;;8.85;;
55007;SDS011;40902;45.116;21.296;2024-01-15T06:39:40;15.98;;;9.65;;
55007;SDS011;40902;45.116;21.296;2024-01-15T06:42:06;13.88;;;9.27;;
55007;SDS011;40902;45.116;21.296;2024-01-15T06:44:32;21.45;;;15.02;;
55007;SDS011;40902;45.116;21.296;2024-01-15T06:46:58;18.90;;;12.77;;
55007;SDS011;40902;45.116;21.296;2024-01-15T06:49:27;24.05;;;16.23;;
55007;SDS011;40902;45.116;21.296;2024-01-15T06:51:54;17.23;;;12.05;;
55007;SDS011;40902;45.116;21.296;2024-01-15T06:54:20;16.40;;;11.80;;
55007;SDS011;40902;45.116;21.296;2024-01-15T06:56:46;18.48;;;11.95;;
55007;SDS011;40902;45.116;21.296;2024-01-15T06:59:12;13.50;;;9.55;;
55007;SDS011;40902;45.116;21.296;2024-01-15T07:01:38;15.55;;;11.57;;
55007;SDS011;40902;45.116;21.296;2024-01-15T07:04:03;14.85;;;10.02;;
55007;SDS011;40902;45.116;21.296;2024-01-15T07:06:29;12.63;;;9.15;;
55007;SDS011;40902;45.116;21.296;2024-01-15T07:08:56;14.60;;;9.80;;
55007;SDS011;40902;45.116;21.296;2024-01-15T07:11:21;15.32;;;9.73;;
55007;SDS011;40902;45.116;21.296;2024-01-15T07:13:47;13.25;;;9.32;;
55007;SDS011;40902;45.116;21.296;2024-01-15T07:16:13;12.20;;;8.48;;
55007;SDS011;40902;45.116;21.296;2024-01-15T07:18:39;13.30;;;8.65;;
55007;SDS011;40902;45.116;21.296;2024-01-15T07:21:04;17.35;;;8.85;;
55007;SDS011;40902;45.116;21.296;2024-01-15T07:23:30;11.23;;;7.95;;
55007;SDS011;40902;45.116;21.296;2024-01-15T07:25:57;17.40;;;11.30;;
55007;SDS011;40902;45.116;21.296;2024-01-15T07:28:23;13.77;;;8.68;;
55007;SDS011;40902;45.116;21.296;2024-01-15T07:30:48;14.30;;;8.32;;
55007;SDS011;40902;45.116;21.296;2024-01-15T07:33:14;15.60;;;8.43;;
55007;SDS011;40902;45.116;21.296;2024-01-15T07:35:40;13.27;;;8.27;;
55007;SDS011;40902;45.116;21.296;2024-01-15T07:38:06;11.85;;;7.50;;
55007;SDS011;40902;45.116;21.296;2024-01-15T07:40:32;16.73;;;8.48;;
55007;SDS011;40902;45.116;21.296;2024-01-15T07:42:57;11.63;;;7.45;;
55007;SDS011;40902;45.116;21.296;2024-01-15T07:45:23;11.70;;;8.10;;
55007;SDS011;40902;45.116;21.296;2024-01-15T07:47:49;11.55;;;8.10;;
55007;SDS011;40902;45.116;21.296;2024-01-15T07:50:15;12.35;;;7.72;;
55007;SDS011;40902;45.116;21.296;2024-01-15T07:52:41;10.98;;;7.40;;
55007;SDS011;40902;45.116;21.296;2024-01-15T07:55:09;9.77;;;7.28;;
55007;SDS011;40902;45.116;21.296;2024-01-15T07:57:35;12.63;;;8.80;;
55007;SDS011;40902;45.116;21.296;2024-01-15T08:00:01;11.95;;;8.15;;
55007;SDS011;40902;45.116;21.296;2024-01-15T08:02:30;10.13;;;8.30;;
55007;SDS011;40902;45.116;21.296;2024-01-15T08:04:57;12.30;;;8.85;;
55007;SDS011;40902;45.116;21.296;2024-01-15T08:07:24;14.02;;;8.90;;
55007;SDS011;40902;45.116;21.296;2024-01-15T08:09:50;13.02;;;8.45;;
55007;SDS011;40902;45.116;21.296;2024-01-15T08:12:17;12.00;;;8.60;;
55007;SDS011;40902;45.116;21.296;2024-01-15T08:14:43;12.23;;;8.40;;
55007;SDS011;40902;45.116;21.296;2024-01-15T08:17:09;13.32;;;8.68;;
55007;SDS011;40902;45.116;21.296;2024-01-15T08:19:34;10.93;;;7.88;;
55007;SDS011;40902;45.116;21.296;2024-01-15T08:22:00;15.43;;;8.32;;
55007;SDS011;40902;45.116;21.296;2024-01-15T08:24:26;12.80;;;8.93;;
55007;SDS011;40902;45.116;21.296;2024-01-15T08:26:52;17.55;;;11.98;;
55007;SDS011;40902;45.116;21.296;2024-01-15T08:29:17;11.85;;;8.00;;
55007;SDS011;40902;45.116;21.296;2024-01-15T08:31:45;14.00;;;8.48;;
55007;SDS011;40902;45.116;21.296;2024-01-15T08:34:11;14.25;;;8.02;;
55007;SDS011;40902;45.116;21.296;2024-01-15T08:36:37;13.73;;;9.00;;
55007;SDS011;40902;45.116;21.296;2024-01-15T08:39:03;10.93;;;7.50;;
55007;SDS011;40902;45.116;21.296;2024-01-15T08:41:31;12.45;;;7.70;;
55007;SDS011;40902;45.116;21.296;2024-01-15T08:43:58;13.68;;;7.65;;
55007;SDS011;40902;45.116;21.296;2024-01-15T08:46:24;10.93;;;7.65;;
55007;SDS011;40902;45.116;21.296;2024-01-15T08:48:50;13.07;;;8.15;;
55007;SDS011;40902;45.116;21.296;2024-01-15T08:51:16;11.32;;;7.57;;
55007;SDS011;40902;45.116;21.296;2024-01-15T08:53:43;10.68;;;7.05;;
55007;SDS011;40902;45.116;21.296;2024-01-15T08:56:09;14.77;;;8.82;;
55007;SDS011;40902;45.116;21.296;2024-01-15T08:58:35;12.85;;;8.93;;
55007;SDS011;40902;45.116;21.296;2024-01-15T09:01:01;14.85;;;9.20;;
55007;SDS011;40902;45.116;21.296;2024-01-15T09:03:27;15.23;;;9.73;;
55007;SDS011;40902;45.116;21.296;2024-01-15T09:05:53;16.98;;;10.02;;
55007;SDS011;40902;45.116;21.296;2024-01-15T09:08:19;15.10;;;9.52;;
55007;SDS011;40902;45.116;21.296;2024-01-15T09:10:45;11.25;;;8.60;;
55007;SDS011;40902;45.116;21.296;2024-01-15T09:13:11;10.48;;;8.13;;
55007;SDS011;40902;45.116;21.296;2024-01-15T09:15:36;14.63;;;10.27;;
55007;SDS011;40902;45.116;21.296;2024-01-15T09:18:02;14.50;;;10.13;;
55007;SDS011;40902;45.116;21.296;2024-01-15T09:20:30;13.23;;;9.40;;
55007;SDS011;40902;45.116;21.296;2024-01-15T09:22:55;13.70;;;9.23;;
55007;SDS011;40902;45.116;21.296;2024-01-15T09:25:21;16.15;;;10.77;;
55007;SDS011;40902;45.116;21.296;2024-01-15T09:27:47;16.98;;;11.25;;
55007;SDS011;40902;45.116;21.296;2024-01-15T09:30:13;18.23;;;14.20;;
55007;SDS011;40902;45.116;21.296;2024-01-15T09:32:39;18.00;;;12.95;;
55007;SDS011;40902;45.116;21.296;2024-01-15T09:35:05;15.52;;;11.02;;
55007;SDS011;40902;45.116;21.296;2024-01-15T09:37:31;19.98;;;10.52;;
55007;SDS011;40902;45.116;21.296;2024-01-15T09:39:57;14.98;;;10.48;;
55007;SDS011;40902;45.116;21.296;2024-01-15T09:42:23;14.70;;;9.68;;
55007;SDS011;40902;45.116;21.296;2024-01-15T09:44:50;12.40;;;9.65;;
55007;SDS011;40902;45.116;21.296;2024-01-15T09:47:17;14.93;;;10.15;;
55007;SDS011;40902;45.116;21.296;2024-01-15T09:49:46;13.00;;;8.82;;
55007;SDS011;40902;45.116;21.296;2024-01-15T09:52:12;13.18;;;9.10;;
55007;SDS011;40902;45.116;21.296;2024-01-15T09:54:43;13.70;;;9.70;;
55007;SDS011;40902;45.116;21.296;2024-01-15T09:57:10;13.90;;;10.02;;
55007;SDS011;40902;45.116;21.296;2024-01-15T09:59:36;14.48;;;10.20;;
55007;SDS011;40902;45.116;21.296;2024-01-15T10:02:02;15.82;;;10.65;;
55007;SDS011;40902;45.116;21.296;2024-01-15T10:04:29;14.18;;;9.90;;
55007;SDS011;40902;45.116;21.296;2024-01-15T10:06:54;14.38;;;9.65;;
55007;SDS011;40902;45.116;21.296;2024-01-15T10:09:22;14.75;;;9.30;;
55007;SDS011;40902;45.116;21.296;2024-01-15T10:11:48;18.58;;;10.68;;
55007;SDS011;40902;45.116;21.296;2024-01-15T10:14:14;15.48;;;10.00;;
55007;SDS011;40902;45.116;21.296;2024-01-15T10:16:40;14.52;;;9.07;;
55007;SDS011;40902;45.116;21.296;2024-01-15T10:19:10;21.80;;;13.57;;
55007;SDS011;40902;45.116;21.296;2024-01-15T10:21:36;16.55;;;10.80;;
55007;SDS011;40902;45.116;21.296;2024-01-15T10:24:02;15.57;;;10.02;;
55007;SDS011;40902;45.116;21.296;2024-01-15T10:26:30;17.33;;;12.60;;
55007;SDS011;40902;45.116;21.296;2024-01-15T10:28:57;19.00;;;12.73;;
55007;SDS011;40902;45.116;21.296;2024-01-15T10:31:24;17.38;;;11.73;;
55007;SDS011;40902;45.116;21.296;2024-01-15T10:33:51;18.73;;;12.18;;
55007;SDS011;40902;45.116;21.296;2024-01-15T10:36:17;19.73;;;12.98;;
55007;SDS011;40902;45.116;21.296;2024-01-15T10:38:43;19.00;;;13.05;;
55007;SDS011;40902;45.116;21.296;2024-01-15T10:41:10;19.35;;;13.80;;
55007;SDS011;40902;45.116;21.296;2024-01-15T10:43:36;18.92;;;10.82;;
55007;SDS011;40902;45.116;21.296;2024-01-15T10:46:02;17.02;;;11.88;;
55007;SDS011;40902;45.116;21.296;2024-01-15T10:48:28;19.10;;;13.32;;
55007;SDS011;40902;45.116;21.296;2024-01-15T10:50:56;23.27;;;13.90;;
55007;SDS011;40902;45.116;21.296;2024-01-15T10:53:23;19.90;;;12.80;;
55007;SDS011;40902;45.116;21.296;2024-01-15T10:55:53;19.85;;;12.82;;
55007;SDS011;40902;45.116;21.296;2024-01-15T10:58:18;24.00;;;14.27;;
55007;SDS011;40902;45.116;21.296;2024-01-15T11:00:45;25.17;;;14.50;;
55007;SDS011;40902;45.116;21.296;2024-01-15T11:03:11;19.38;;;12.77;;
55007;SDS011;40902;45.116;21.296;2024-01-15T11:05:38;22.45;;;13.15;;
55007;SDS011;40902;45.116;21.296;2024-01-15T11:08:07;17.42;;;11.65;;
55007;SDS011;40902;45.116;21.296;2024-01-15T11:10:40;54.22;;;34.15;;
55007;SDS011;40902;45.116;21.296;2024-01-15T11:13:13;21.77;;;14.63;;
55007;SDS011;40902;45.116;21.296;2024-01-15T11:16:04;22.25;;;14.77;;
55007;SDS011;40902;45.116;21.296;2024-01-15T11:18:35;14.80;;;11.02;;
55007;SDS011;40902;45.116;21.296;2024-01-15T11:26:27;18.65;;;12.85;;
55007;SDS011;40902;45.116;21.296;2024-01-15T11:28:54;19.85;;;12.23;;
55007;SDS011;40902;45.116;21.296;2024-01-15T11:31:25;16.83;;;11.35;;
55007;SDS011;40902;45.116;21.296;2024-01-15T11:34:03;16.63;;;11.70;;
55007;SDS011;40902;45.116;21.296;2024-01-15T11:41:52;21.80;;;12.68;;
55007;SDS011;40902;45.116;21.296;2024-01-15T11:44:20;17.05;;;11.52;;
55007;SDS011;40902;45.116;21.296;2024-01-15T11:51:59;17.35;;;11.90;;
55007;SDS011;40902;45.116;21.296;2024-01-15T11:54:28;17.55;;;12.23;;
55007;SDS011;40902;45.116;21.296;2024-01-15T11:56:59;16.35;;;12.05;;
55007;SDS011;40902;45.116;21.296;2024-01-15T11:59:29;17.30;;;12.27;;
55007;SDS011;40902;45.116;21.296;2024-01-15T12:01:55;18.52;;;12.65;;
55007;SDS011;40902;45.116;21.296;2024-01-15T12:04:21;17.23;;;12.05;;
55007;SDS011;40902;45.116;21.296;2024-01-15T12:06:47;20.27;;;12.23;;
55007;SDS011;40902;45.116;21.296;2024-01-15T12:09:13;16.80;;;10.50;;
55007;SDS011;40902;45.116;21.296;2024-01-15T12:11:39;22.50;;;12.43;;
55007;SDS011;40902;45.116;21.296;2024-01-15T12:14:10;27.00;;;14.07;;
55007;SDS011;40902;45.116;21.296;2024-01-15T12:16:35;27.15;;;13.93;;
55007;SDS011;40902;45.116;21.296;2024-01-15T12:19:01;21.70;;;13.88;;
55007;SDS011;40902;45.116;21.296;2024-01-15T12:21:27;27.75;;;13.13;;
55007;SDS011;40902;45.116;21.296;2024-01-15T12:23:55;22.40;;;12.18;;
55007;SDS011;40902;45.116;21.296;2024-01-15T12:26:21;23.98;;;14.10;;
55007;SDS011;40902;45.116;21.296;2024-01-15T12:28:49;22.35;;;13.88;;
55007;SDS011;40902;45.116;21.296;2024-01-15T12:31:16;19.50;;;11.48;;
55007;SDS011;40902;45.116;21.296;2024-01-15T12:33:42;19.02;;;11.60;;
55007;SDS011;40902;45.116;21.296;2024-01-15T12:36:08;19.00;;;11.18;;
55007;SDS011;40902;45.116;21.296;2024-01-15T12:38:33;18.15;;;11.27;;
55007;SDS011;40902;45.116;21.296;2024-01-15T12:41:00;21.83;;;11.68;;
55007;SDS011;40902;45.116;21.296;2024-01-15T12:43:26;16.55;;;11.38;;
55007;SDS011;40902;45.116;21.296;2024-01-15T12:45:52;16.75;;;11.65;;
55007;SDS011;40902;45.116;21.296;2024-01-15T12:48:18;20.02;;;12.27;;
55007;SDS011;40902;45.116;21.296;2024-01-15T12:50:44;21.50;;;11.50;;
55007;SDS011;40902;45.116;21.296;2024-01-15T12:53:10;20.48;;;12.90;;
55007;SDS011;40902;45.116;21.296;2024-01-15T12:55:36;21.65;;;14.55;;
55007;SDS011;40902;45.116;21.296;2024-01-15T12:58:02;18.52;;;12.55;;
55007;SDS011;40902;45.116;21.296;2024-01-15T13:00:27;19.50;;;12.70;;
55007;SDS011;40902;45.116;21.296;2024-01-15T13:02:53;19.48;;;12.85;;
55007;SDS011;40902;45.116;21.296;2024-01-15T13:05:20;19.77;;;12.35;;
55007;SDS011;40902;45.116;21.296;2024-01-15T13:07:46;19.92;;;12.10;;
55007;SDS011;40902;45.116;21.296;2024-01-15T13:10:12;22.75;;;13.18;;
55007;SDS011;40902;45.116;21.296;2024-01-15T13:12:38;24.50;;;14.95;;
55007;SDS011;40902;45.116;21.296;2024-01-15T13:15:05;25.00;;;15.25;;
55007;SDS011;40902;45.116;21.296;2024-01-15T13:17:34;24.27;;;14.85;;
55007;SDS011;40902;45.116;21.296;2024-01-15T13:20:00;21.30;;;13.60;;
55007;SDS011;40902;45.116;21.296;2024-01-15T13:22:26;19.98;;;12.73;;
55007;SDS011;40902;45.116;21.296;2024-01-15T13:24:56;20.48;;;13.02;;
55007;SDS011;40902;45.116;21.296;2024-01-15T13:27:22;19.48;;;12.82;;
55007;SDS011;40902;45.116;21.296;2024-01-15T13:29:48;26.42;;;15.73;;
55007;SDS011;40902;45.116;21.296;2024-01-15T13:32:14;39.92;;;26.23;;
55007;SDS011;40902;45.116;21.296;2024-01-15T13:34:47;39.42;;;24.70;;
55007;SDS011;40902;45.116;21.296;2024-01-15T13:37:13;27.48;;;17.75;;
55007;SDS011;40902;45.116;21.296;2024-01-15T13:39:39;27.15;;;18.08;;
55007;SDS011;40902;45.116;21.296;2024-01-15T13:42:05;30.00;;;21.23;;
55007;SDS011;40902;45.116;21.296;2024-01-15T13:44:30;28.95;;;19.23;;
55007;SDS011;40902;45.116;21.296;2024-01-15T13:46:56;24.35;;;18.05;;
55007;SDS011;40902;45.116;21.296;2024-01-15T13:49:22;26.80;;;19.90;;
55007;SDS011;40902;45.116;21.296;2024-01-15T13:51:48;24.20;;;16.75;;
55007;SDS011;40902;45.116;21.296;2024-01-15T13:54:15;27.60;;;19.67;;
55007;SDS011;40902;45.116;21.296;2024-01-15T13:56:40;23.45;;;16.17;;
55007;SDS011;40902;45.116;21.296;2024-01-15T13:59:07;26.52;;;17.27;;
55007;SDS011;40902;45.116;21.296;2024-01-15T14:01:33;27.00;;;18.92;;
55007;SDS011;40902;45.116;21.296;2024-01-15T14:04:00;24.75;;;16.98;;
55007;SDS011;40902;45.116;21.296;2024-01-15T14:06:25;21.08;;;14.95;;
55007;SDS011;40902;45.116;21.296;2024-01-15T14:08:51;21.33;;;15.73;;
55007;SDS011;40902;45.116;21.296;2024-01-15T14:11:17;23.05;;;15.63;;
55007;SDS011;40902;45.116;21.296;2024-01-15T14:13:43;24.55;;;15.82;;
55007;SDS011;40902;45.116;21.296;2024-01-15T14:16:08;23.33;;;16.65;;
55007;SDS011;40902;45.116;21.296;2024-01-15T14:18:34;25.25;;;15.68;;
55007;SDS011;40902;45.116;21.296;2024-01-15T14:21:00;26.05;;;17.85;;
55007;SDS011;40902;45.116;21.296;2024-01-15T14:23:26;31.35;;;20.80;;